KDIK/DIK METAR and TAF weather

Enter ICAO airport designator
Station Type Date Time Source
KDIK METAR 2021/07/30 23:56 UTC NOAA

KDIK 302356Z AUTO 35004KT 3SM HZ CLR 32/11 A3009 RMK AO2 SLP173 T03220106 10328 20261 58003


Station Type Date Time Source
KDIK Decoded METAR 2021/07/30 23:56 UTC NOAA

THEODORE ROOSEVELT REGIONAL, ND, United States (KDIK) 46-48N 102-48W 788M
Jul 30, 2021 - 07:56 PM EDT / 2021.07.30 2356 UTC
Wind: from the N (350 degrees) at 5 MPH (4 KT):0
Visibility: 3 mile(s):0
Sky conditions: clear
Weather: haze
Temperature: 90.0 F (32.2 C)
Dew Point: 51.1 F (10.6 C)
Relative Humidity: 26%
Pressure (altimeter): 30.09 in. Hg (1018 hPa)
Pressure tendency: 0.01 inches (0.3 hPa) lower than three hours ago
ob: KDIK 302356Z AUTO 35004KT 3SM HZ CLR 32/11 A3009 RMK AO2 SLP173 T03220106 10328 20261 58003
cycle: 0

Station Type Date Time Source
KDIK TAF 2021/07/30 22:58 UTC NOAA

TAF
AMD KDIK 302157Z 3022/3118 33006KT 5SM FU FEW250
TEMPO 3022/3024 3SM FU
FM310200 04006KT P6SM FEW250

Example: see airport list